createdAt,value
2022-07-31T00:01:21.202Z,1.60
2022-07-31T00:03:47.797Z,1.70
2022-07-31T00:06:14.275Z,1.58
2022-07-31T00:08:40.747Z,1.60
2022-07-31T00:11:07.393Z,1.75
2022-07-31T00:13:57.888Z,1.90
2022-07-31T00:16:20.356Z,1.63
2022-07-31T00:18:46.762Z,1.60
2022-07-31T00:21:14.039Z,1.88
2022-07-31T00:23:41.091Z,1.73
2022-07-31T00:26:07.919Z,1.92
2022-07-31T00:28:34.641Z,1.95
2022-07-31T00:31:01.221Z,1.70
2022-07-31T00:33:27.696Z,1.50
2022-07-31T00:35:54.210Z,1.60
2022-07-31T00:38:28.036Z,2.40
2022-07-31T00:40:54.655Z,1.95
2022-07-31T00:43:21.390Z,1.90
2022-07-31T00:45:53.208Z,1.85
2022-07-31T00:48:26.160Z,1.70
2022-07-31T00:50:54.938Z,1.70
2022-07-31T00:53:21.432Z,1.60
2022-07-31T00:55:51.742Z,1.85
2022-07-31T00:58:21.751Z,1.60
2022-07-31T01:00:48.560Z,1.85
2022-07-31T01:03:15.420Z,2.15
2022-07-31T01:05:41.996Z,1.55
2022-07-31T01:08:08.484Z,1.77
2022-07-31T01:10:52.349Z,1.55
2022-07-31T01:13:32.971Z,1.67
2022-07-31T01:16:01.279Z,1.63
2022-07-31T01:18:31.497Z,1.67
2022-07-31T01:21:03.629Z,1.80
2022-07-31T01:23:51.014Z,2.00
2022-07-31T01:26:45.097Z,2.08
2022-07-31T01:29:38.410Z,1.50
2022-07-31T01:32:10.910Z,2.13
2022-07-31T01:34:46.747Z,2.22
2022-07-31T01:37:36.029Z,1.83
2022-07-31T01:40:12.896Z,2.10
2022-07-31T01:42:42.558Z,2.17
2022-07-31T01:45:10.787Z,2.10
2022-07-31T01:47:40.065Z,2.20
2022-07-31T01:50:08.808Z,2.30
2022-07-31T01:52:59.346Z,2.05
2022-07-31T01:55:27.382Z,2.40
2022-07-31T01:57:55.678Z,2.05
2022-07-31T02:00:33.618Z,2.00
2022-07-31T02:03:01.600Z,2.28
2022-07-31T02:05:37.078Z,2.17
2022-07-31T02:08:06.358Z,2.53
2022-07-31T02:10:33.289Z,2.25
2022-07-31T02:13:02.710Z,2.20
2022-07-31T02:15:30.815Z,2.10
2022-07-31T02:18:00.230Z,1.98
2022-07-31T02:20:31.087Z,2.03
2022-07-31T02:22:59.187Z,2.05
2022-07-31T02:25:26.970Z,2.10
2022-07-31T02:27:58.616Z,2.30
2022-07-31T02:30:39.234Z,1.80
2022-07-31T02:33:10.660Z,2.20
2022-07-31T02:35:44.198Z,2.35
2022-07-31T02:38:22.926Z,2.35
2022-07-31T02:41:02.220Z,2.40
2022-07-31T02:43:30.878Z,1.90
2022-07-31T02:45:58.300Z,2.28
2022-07-31T02:48:26.137Z,2.10
2022-07-31T02:50:53.290Z,1.90
2022-07-31T02:53:20.977Z,2.10
2022-07-31T02:55:48.050Z,2.10
2022-07-31T02:58:14.569Z,2.10
2022-07-31T03:00:41.264Z,2.00
2022-07-31T03:03:07.808Z,2.13
2022-07-31T03:05:34.348Z,2.22
2022-07-31T03:08:00.771Z,2.17
2022-07-31T03:10:27.425Z,2.08
2022-07-31T03:12:55.579Z,2.20
2022-07-31T03:15:25.931Z,2.45
2022-07-31T03:17:53.607Z,2.77
2022-07-31T03:20:20.636Z,2.92
2022-07-31T03:22:47.209Z,2.90
2022-07-31T03:25:21.341Z,3.28
2022-07-31T03:27:55.544Z,2.95
2022-07-31T03:30:26.527Z,2.55
2022-07-31T03:32:54.381Z,3.00
2022-07-31T03:35:21.253Z,2.80
2022-07-31T03:37:47.662Z,2.80
2022-07-31T03:40:14.361Z,2.70
2022-07-31T03:42:41.130Z,2.90
2022-07-31T03:45:10.874Z,2.97
2022-07-31T03:47:37.602Z,2.67
2022-07-31T03:50:05.461Z,2.50
2022-07-31T03:52:32.161Z,3.17
2022-07-31T03:54:59.215Z,2.90
2022-07-31T03:57:31.146Z,2.90
2022-07-31T04:00:00.163Z,3.17
2022-07-31T04:02:28.380Z,3.50
2022-07-31T04:04:55.486Z,3.53
2022-07-31T04:07:21.898Z,3.92
2022-07-31T04:09:48.387Z,3.50
2022-07-31T04:12:14.944Z,4.22
2022-07-31T04:14:41.350Z,4.53
2022-07-31T04:17:07.972Z,4.70
2022-07-31T04:19:35.032Z,4.72
2022-07-31T04:22:02.051Z,4.90
2022-07-31T04:24:28.854Z,5.18
2022-07-31T04:26:55.662Z,4.90
2022-07-31T04:29:22.344Z,4.80
2022-07-31T04:31:48.790Z,5.30
2022-07-31T04:34:15.350Z,5.43
2022-07-31T04:36:41.749Z,4.88
2022-07-31T04:39:08.189Z,5.50
2022-07-31T04:41:34.672Z,5.65
2022-07-31T04:44:01.064Z,5.30
2022-07-31T04:46:27.660Z,4.88
2022-07-31T04:48:54.149Z,6.03
2022-07-31T04:51:22.739Z,5.78
2022-07-31T04:53:50.213Z,6.30
2022-07-31T04:56:33.239Z,5.53
2022-07-31T04:59:01.505Z,5.65
2022-07-31T05:01:27.950Z,5.68
2022-07-31T05:03:54.420Z,5.80
2022-07-31T05:06:20.965Z,6.00
2022-07-31T05:08:47.335Z,6.43
2022-07-31T05:11:22.900Z,6.05
2022-07-31T05:13:53.580Z,6.40
2022-07-31T05:16:21.506Z,6.45
2022-07-31T05:18:48.850Z,6.10
2022-07-31T05:21:16.333Z,6.75
2022-07-31T05:23:44.576Z,5.90
2022-07-31T05:26:12.239Z,6.40
2022-07-31T05:28:39.404Z,6.72
2022-07-31T05:31:07.351Z,7.22
2022-07-31T05:33:33.768Z,6.68
2022-07-31T05:36:01.260Z,6.55
2022-07-31T05:38:28.356Z,7.10
2022-07-31T05:40:54.856Z,6.55
2022-07-31T05:43:21.260Z,7.60
2022-07-31T05:45:47.977Z,7.15
2022-07-31T05:48:18.234Z,7.32
2022-07-31T05:50:46.069Z,6.70
2022-07-31T05:53:14.935Z,7.50
2022-07-31T05:55:42.350Z,7.28
2022-07-31T05:58:11.526Z,7.22
2022-07-31T06:00:42.153Z,8.02
2022-07-31T06:03:08.645Z,7.57
2022-07-31T06:05:35.319Z,7.78
2022-07-31T06:08:02.173Z,8.13
2022-07-31T06:10:28.590Z,8.50
2022-07-31T06:12:55.166Z,8.15
2022-07-31T06:15:21.865Z,8.52
2022-07-31T06:17:48.516Z,8.00
2022-07-31T06:20:15.168Z,8.68
2022-07-31T06:22:43.818Z,9.95
2022-07-31T06:25:11.152Z,10.10
2022-07-31T06:27:40.903Z,10.05
2022-07-31T06:30:09.075Z,10.23
2022-07-31T06:32:36.526Z,11.13
2022-07-31T06:35:04.025Z,9.43
2022-07-31T06:37:30.481Z,10.65
2022-07-31T06:39:56.878Z,11.10
2022-07-31T06:42:25.091Z,9.45
2022-07-31T06:44:52.520Z,10.10
2022-07-31T06:47:24.594Z,9.25
2022-07-31T06:49:51.430Z,9.68
2022-07-31T06:52:18.317Z,9.90
2022-07-31T06:54:45.342Z,9.43
2022-07-31T06:57:12.489Z,9.25
2022-07-31T06:59:40.130Z,10.32
2022-07-31T07:02:08.078Z,8.73
2022-07-31T07:04:57.821Z,8.90
2022-07-31T07:07:21.509Z,8.20
2022-07-31T07:09:47.941Z,9.43
2022-07-31T07:12:16.639Z,8.80
2022-07-31T07:14:43.741Z,7.90
2022-07-31T07:17:10.235Z,8.07
2022-07-31T07:19:41.126Z,7.60
2022-07-31T07:22:07.697Z,7.47
2022-07-31T07:24:34.153Z,7.63
2022-07-31T07:27:00.627Z,7.07
2022-07-31T07:29:27.016Z,6.88
2022-07-31T07:31:53.402Z,7.32
2022-07-31T07:34:19.781Z,7.43
2022-07-31T07:36:46.316Z,6.90
2022-07-31T07:39:13.172Z,7.10
2022-07-31T07:41:39.655Z,6.38
2022-07-31T07:44:07.133Z,6.63
2022-07-31T07:46:33.890Z,6.13
2022-07-31T07:49:00.954Z,6.05
2022-07-31T07:51:27.390Z,6.20
2022-07-31T07:53:53.802Z,6.50
2022-07-31T07:56:20.332Z,6.45
2022-07-31T07:58:48.966Z,6.13
2022-07-31T08:01:16.606Z,5.60
2022-07-31T08:03:49.254Z,6.45
2022-07-31T08:06:20.142Z,5.85
2022-07-31T08:08:46.767Z,6.22
2022-07-31T08:11:16.961Z,5.93
2022-07-31T08:13:49.668Z,6.10
2022-07-31T08:16:17.661Z,5.93
2022-07-31T08:18:44.238Z,5.60
2022-07-31T08:21:10.751Z,5.72
2022-07-31T08:23:37.199Z,5.65
2022-07-31T08:26:08.509Z,6.55
2022-07-31T08:28:36.280Z,5.75
2022-07-31T08:31:03.146Z,4.80
2022-07-31T08:33:29.824Z,5.25
2022-07-31T08:35:56.277Z,5.25
2022-07-31T08:38:22.841Z,5.30
2022-07-31T08:40:49.432Z,5.07
2022-07-31T08:46:04.773Z,4.47
2022-07-31T08:48:33.337Z,4.45
2022-07-31T08:51:03.343Z,5.25
2022-07-31T08:53:32.899Z,5.43
2022-07-31T08:55:59.540Z,5.60
2022-07-31T08:58:26.350Z,6.20
2022-07-31T09:00:53.497Z,6.55
2022-07-31T09:03:20.396Z,5.72
2022-07-31T09:05:49.994Z,6.40
2022-07-31T09:08:19.574Z,6.30
2022-07-31T09:10:49.961Z,5.82
2022-07-31T09:13:19.104Z,6.13
2022-07-31T09:15:46.364Z,5.95
2022-07-31T09:18:17.668Z,6.07
2022-07-31T09:21:04.347Z,5.47
2022-07-31T09:23:35.023Z,5.57
2022-07-31T09:26:05.701Z,5.28
2022-07-31T09:28:33.859Z,5.65
2022-07-31T09:31:00.737Z,5.25
2022-07-31T09:33:29.881Z,5.43
2022-07-31T09:35:58.012Z,5.07
2022-07-31T09:38:35.416Z,4.57
2022-07-31T09:42:01.397Z,5.03
2022-07-31T09:44:15.544Z,5.20
2022-07-31T09:46:47.017Z,5.07
2022-07-31T09:49:14.385Z,5.05
2022-07-31T09:51:46.030Z,4.43
2022-07-31T09:54:26.869Z,4.35
2022-07-31T09:56:53.679Z,5.00
2022-07-31T09:59:20.264Z,4.32
2022-07-31T10:01:49.059Z,5.00
2022-07-31T10:04:20.253Z,4.53
2022-07-31T10:09:21.710Z,4.80
2022-07-31T10:11:50.232Z,4.38
2022-07-31T10:14:22.486Z,4.75
2022-07-31T10:16:54.343Z,5.00
2022-07-31T10:19:22.391Z,5.05
2022-07-31T10:21:57.276Z,4.90
2022-07-31T10:24:28.811Z,4.38
2022-07-31T10:27:10.408Z,5.28
2022-07-31T10:29:39.393Z,5.10
2022-07-31T10:32:07.663Z,4.85
2022-07-31T10:34:35.038Z,5.05
2022-07-31T10:37:16.545Z,5.35
2022-07-31T10:39:58.243Z,5.22
2022-07-31T10:42:34.869Z,4.97
2022-07-31T10:45:15.174Z,5.07
2022-07-31T10:47:55.374Z,5.10
2022-07-31T10:50:24.830Z,5.10
2022-07-31T10:52:51.490Z,4.65
2022-07-31T10:55:25.156Z,5.05
2022-07-31T10:57:55.301Z,4.70
2022-07-31T11:00:30.283Z,4.57
2022-07-31T11:02:57.289Z,4.97
2022-07-31T11:05:25.900Z,4.10
2022-07-31T11:08:07.957Z,4.25
2022-07-31T11:10:34.781Z,4.65
2022-07-31T11:13:01.258Z,4.22
2022-07-31T11:15:31.702Z,4.13
2022-07-31T11:18:21.160Z,4.80
2022-07-31T11:20:48.510Z,4.88
2022-07-31T11:23:17.828Z,4.50
2022-07-31T11:25:49.015Z,4.82
2022-07-31T11:28:24.636Z,3.95
2022-07-31T11:30:52.233Z,4.70
2022-07-31T11:33:42.241Z,4.80
2022-07-31T11:36:17.466Z,4.40
2022-07-31T11:38:46.847Z,3.80
2022-07-31T11:41:14.277Z,4.00
2022-07-31T11:43:50.909Z,4.10
2022-07-31T11:46:28.633Z,4.20
2022-07-31T11:48:56.991Z,4.10
2022-07-31T11:51:24.905Z,3.80
2022-07-31T11:53:56.788Z,3.90
2022-07-31T11:56:26.307Z,3.58
2022-07-31T11:58:58.117Z,3.83
2022-07-31T12:01:29.690Z,3.70
2022-07-31T12:03:57.670Z,3.88
2022-07-31T12:06:34.984Z,4.53
2022-07-31T12:09:04.357Z,3.72
2022-07-31T12:11:31.678Z,3.72
2022-07-31T12:13:59.329Z,3.65
2022-07-31T12:16:25.992Z,3.80
2022-07-31T12:18:59.081Z,4.00
2022-07-31T12:21:36.168Z,3.17
2022-07-31T12:24:09.950Z,3.55
2022-07-31T12:26:36.491Z,3.53
2022-07-31T12:29:09.754Z,3.20
2022-07-31T12:31:50.692Z,3.00
2022-07-31T12:34:34.990Z,3.13
2022-07-31T12:37:04.410Z,3.10
2022-07-31T12:39:53.736Z,2.60
2022-07-31T12:42:30.934Z,2.85
2022-07-31T12:45:17.946Z,2.67
2022-07-31T12:47:54.150Z,3.03
2022-07-31T12:50:21.976Z,2.45
2022-07-31T12:52:48.745Z,2.75
2022-07-31T12:55:17.228Z,2.60
2022-07-31T12:57:51.160Z,2.55
2022-07-31T13:00:22.398Z,3.38
2022-07-31T13:02:49.414Z,2.28
2022-07-31T13:05:16.091Z,2.35
2022-07-31T13:07:42.557Z,2.08
2022-07-31T13:10:14.783Z,2.50
2022-07-31T13:12:50.205Z,3.05
2022-07-31T13:15:18.149Z,2.67
2022-07-31T13:17:50.138Z,2.75
2022-07-31T13:22:43.990Z,2.22
2022-07-31T13:25:10.483Z,2.88
2022-07-31T13:27:37.037Z,2.92
2022-07-31T13:30:04.550Z,3.15
2022-07-31T13:32:31.672Z,3.65
2022-07-31T13:35:19.603Z,3.85
2022-07-31T13:37:46.502Z,3.55
2022-07-31T13:40:13.883Z,3.88
2022-07-31T13:42:40.662Z,3.20
2022-07-31T13:45:08.631Z,3.53
2022-07-31T13:47:50.546Z,3.28
2022-07-31T13:50:19.207Z,3.53
2022-07-31T13:52:45.630Z,3.13
2022-07-31T13:55:12.124Z,3.60
2022-07-31T13:57:38.594Z,3.15
2022-07-31T14:00:06.143Z,3.00
2022-07-31T14:02:32.649Z,3.33
2022-07-31T14:04:59.116Z,2.72
2022-07-31T14:07:47.982Z,3.22
2022-07-31T14:10:13.268Z,4.13
2022-07-31T14:12:41.560Z,3.03
2022-07-31T14:15:08.485Z,3.10
2022-07-31T14:17:34.964Z,3.00
2022-07-31T14:20:01.583Z,2.75
2022-07-31T14:22:29.568Z,3.22
2022-07-31T14:24:56.180Z,3.67
2022-07-31T14:27:22.626Z,3.05
2022-07-31T14:29:49.275Z,3.47
2022-07-31T14:32:15.898Z,3.17
2022-07-31T14:34:42.320Z,2.50
2022-07-31T14:37:08.898Z,3.55
2022-07-31T14:39:35.957Z,3.25
2022-07-31T14:42:09.303Z,2.72
2022-07-31T14:44:36.814Z,2.90
2022-07-31T14:47:04.869Z,2.95
2022-07-31T14:50:09.404Z,2.95
2022-07-31T14:52:18.480Z,2.15
2022-07-31T14:54:44.941Z,3.17
2022-07-31T14:57:11.805Z,3.03
2022-07-31T14:59:38.697Z,3.10
2022-07-31T15:02:05.390Z,4.18
2022-07-31T15:04:32.438Z,3.55
2022-07-31T15:07:19.016Z,4.63
2022-07-31T15:09:46.424Z,4.53
2022-07-31T15:12:16.650Z,5.20
2022-07-31T15:14:46.008Z,3.73
2022-07-31T15:17:12.388Z,4.05
2022-07-31T15:19:38.862Z,4.40
2022-07-31T15:22:10.406Z,4.00
2022-07-31T15:24:48.843Z,3.85
2022-07-31T15:27:21.612Z,4.20
2022-07-31T15:30:03.978Z,3.85
2022-07-31T15:32:38.049Z,4.60
2022-07-31T15:35:06.417Z,3.50
2022-07-31T15:37:36.933Z,4.10
2022-07-31T15:40:09.275Z,3.22
2022-07-31T15:42:39.930Z,3.55
2022-07-31T15:45:08.894Z,3.40
2022-07-31T15:47:35.384Z,3.25
2022-07-31T15:50:01.833Z,2.28
2022-07-31T15:52:28.316Z,1.85
2022-07-31T15:54:55.830Z,1.85
2022-07-31T15:57:23.147Z,2.25
2022-07-31T15:59:50.462Z,1.90
2022-07-31T16:02:17.613Z,1.65
2022-07-31T16:04:52.802Z,1.40
2022-07-31T16:08:28.730Z,1.40
2022-07-31T16:10:16.691Z,1.60
2022-07-31T16:12:47.293Z,0.82
2022-07-31T16:15:15.070Z,1.10
2022-07-31T16:17:48.286Z,0.77
2022-07-31T16:20:20.740Z,1.30
2022-07-31T16:22:56.811Z,1.20
2022-07-31T16:25:27.824Z,1.77
2022-07-31T16:27:55.429Z,1.88
2022-07-31T16:30:22.824Z,1.98
2022-07-31T16:32:49.864Z,1.65
2022-07-31T16:35:16.633Z,1.98
2022-07-31T16:37:51.038Z,1.98
2022-07-31T16:40:29.383Z,1.65
2022-07-31T16:43:47.484Z,1.55
2022-07-31T16:45:54.739Z,1.80
2022-07-31T16:48:21.588Z,2.00
2022-07-31T16:50:53.772Z,1.83
2022-07-31T16:54:14.475Z,2.70
2022-07-31T16:56:15.766Z,2.50
2022-07-31T16:58:43.862Z,2.25
2022-07-31T17:01:58.292Z,1.63
2022-07-31T17:04:00.894Z,1.52
2022-07-31T17:06:36.218Z,2.45
2022-07-31T17:09:16.805Z,2.15
2022-07-31T17:11:44.419Z,2.22
2022-07-31T17:14:11.461Z,2.22
2022-07-31T17:16:38.243Z,2.10
2022-07-31T17:19:05.629Z,2.17
2022-07-31T17:21:32.460Z,1.80
2022-07-31T17:23:59.791Z,2.03
2022-07-31T17:26:26.529Z,2.60
2022-07-31T17:28:55.888Z,2.50
2022-07-31T17:31:22.464Z,2.58
2022-07-31T17:33:58.994Z,2.70
2022-07-31T17:36:28.541Z,2.03
2022-07-31T17:38:56.216Z,2.22
2022-07-31T17:41:25.348Z,3.25
2022-07-31T17:43:54.103Z,2.30
2022-07-31T17:46:34.754Z,2.70
2022-07-31T17:49:05.844Z,2.88
2022-07-31T17:51:33.425Z,3.40
2022-07-31T17:54:00.639Z,3.20
2022-07-31T17:56:27.701Z,3.40
2022-07-31T17:58:55.877Z,3.05
2022-07-31T18:01:25.793Z,3.83
2022-07-31T18:03:55.713Z,3.90
2022-07-31T18:06:22.546Z,3.25
2022-07-31T18:08:49.220Z,3.50
2022-07-31T18:11:15.733Z,3.63
2022-07-31T18:13:48.196Z,2.83
2022-07-31T18:16:17.451Z,3.22
2022-07-31T18:18:45.264Z,2.92
2022-07-31T18:21:12.344Z,3.47
2022-07-31T18:23:43.643Z,3.40
2022-07-31T18:26:22.283Z,3.38
2022-07-31T18:28:52.382Z,3.40
2022-07-31T18:31:34.331Z,3.03
2022-07-31T18:34:02.219Z,3.38
2022-07-31T18:36:29.124Z,3.22
2022-07-31T18:38:56.057Z,3.42
2022-07-31T18:41:22.775Z,3.45
2022-07-31T18:43:49.368Z,2.63
2022-07-31T18:46:22.462Z,2.58
2022-07-31T18:48:54.814Z,3.08
2022-07-31T18:51:25.258Z,3.25
2022-07-31T18:53:54.647Z,3.20
2022-07-31T18:56:27.379Z,4.00
2022-07-31T18:58:57.215Z,3.33
2022-07-31T19:01:26.733Z,3.45
2022-07-31T19:03:53.513Z,3.33
2022-07-31T19:06:20.844Z,2.63
2022-07-31T19:08:49.766Z,3.20
2022-07-31T19:11:16.717Z,3.03
2022-07-31T19:13:50.644Z,3.33
2022-07-31T19:16:18.106Z,2.63
2022-07-31T19:18:50.319Z,2.67
2022-07-31T19:21:41.418Z,3.22
2022-07-31T19:24:04.422Z,3.17
2022-07-31T19:26:34.358Z,3.33
2022-07-31T19:29:03.749Z,2.33
2022-07-31T19:31:42.254Z,2.03
2022-07-31T19:34:08.938Z,2.80
2022-07-31T19:36:35.379Z,2.97
2022-07-31T19:39:01.819Z,3.35
2022-07-31T19:41:28.418Z,2.60
2022-07-31T19:43:54.877Z,3.08
2022-07-31T19:46:21.527Z,2.70
2022-07-31T19:48:48.088Z,2.55
2022-07-31T19:51:16.118Z,3.47
2022-07-31T19:53:46.223Z,2.88
2022-07-31T19:56:18.094Z,3.70
2022-07-31T19:58:47.006Z,3.30
2022-07-31T20:01:14.270Z,2.58
2022-07-31T20:03:41.035Z,3.58
2022-07-31T20:06:07.606Z,3.55
2022-07-31T20:08:34.047Z,3.50
2022-07-31T20:11:03.178Z,3.45
2022-07-31T20:13:30.464Z,3.35
2022-07-31T20:15:57.924Z,3.30
2022-07-31T20:18:28.901Z,3.03
2022-07-31T20:21:00.733Z,3.60
2022-07-31T20:23:28.015Z,3.05
2022-07-31T20:25:54.555Z,3.65
2022-07-31T20:28:21.237Z,4.05
2022-07-31T20:30:47.728Z,3.50
2022-07-31T20:33:14.279Z,3.80
2022-07-31T20:35:48.824Z,4.22
2022-07-31T20:38:20.929Z,4.68
2022-07-31T20:43:21.249Z,4.13
2022-07-31T20:45:47.927Z,4.00
2022-07-31T20:48:17.523Z,4.78
2022-07-31T20:50:44.140Z,4.47
2022-07-31T20:53:14.344Z,4.30
2022-07-31T20:55:40.809Z,4.00
2022-07-31T20:58:07.201Z,4.68
2022-07-31T21:00:37.954Z,5.10
2022-07-31T21:03:05.644Z,4.75
2022-07-31T21:05:32.053Z,3.67
2022-07-31T21:07:58.734Z,4.90
2022-07-31T21:10:28.174Z,4.65
2022-07-31T21:12:56.102Z,4.68
2022-07-31T21:15:42.898Z,6.50
2022-07-31T21:18:09.195Z,6.45
2022-07-31T21:20:50.649Z,5.40
2022-07-31T21:23:23.991Z,5.38
2022-07-31T21:25:56.332Z,7.50
2022-07-31T21:28:24.408Z,6.53
2022-07-31T21:30:53.432Z,7.28
2022-07-31T21:33:19.979Z,6.80
2022-07-31T21:35:46.980Z,7.72
2022-07-31T21:38:17.060Z,6.38
2022-07-31T21:40:44.776Z,7.47
2022-07-31T21:43:12.442Z,7.70
2022-07-31T21:45:51.358Z,7.53
2022-07-31T21:48:24.695Z,8.55
2022-07-31T21:50:51.408Z,8.18
2022-07-31T21:53:17.765Z,8.63
2022-07-31T21:55:44.139Z,8.93
2022-07-31T21:58:10.786Z,10.45
2022-07-31T22:00:38.110Z,10.90
2022-07-31T22:03:05.319Z,10.60
2022-07-31T22:05:51.446Z,9.52
2022-07-31T22:08:17.965Z,8.20
2022-07-31T22:10:44.360Z,9.30
2022-07-31T22:13:11.422Z,8.68
2022-07-31T22:15:58.779Z,9.43
2022-07-31T22:18:26.555Z,9.55
2022-07-31T22:20:53.551Z,9.38
2022-07-31T22:23:20.650Z,9.40
2022-07-31T22:25:48.831Z,9.20
2022-07-31T22:28:18.684Z,9.48
2022-07-31T22:30:45.595Z,9.60
2022-07-31T22:33:12.382Z,9.10
2022-07-31T22:35:40.522Z,6.65
2022-07-31T22:38:07.721Z,7.60
2022-07-31T22:40:34.323Z,6.70
2022-07-31T22:43:02.620Z,7.18
2022-07-31T22:45:30.393Z,7.78
2022-07-31T22:47:57.698Z,7.03
2022-07-31T22:50:24.612Z,8.82
2022-07-31T22:52:51.227Z,7.28
2022-07-31T22:55:17.740Z,6.85
2022-07-31T22:57:44.878Z,7.30
2022-07-31T23:00:13.853Z,7.05
2022-07-31T23:02:41.590Z,7.07
2022-07-31T23:05:09.133Z,6.72
2022-07-31T23:07:35.663Z,6.32
2022-07-31T23:10:02.256Z,6.43
2022-07-31T23:12:29.526Z,6.20
2022-07-31T23:14:56.303Z,6.68
2022-07-31T23:17:23.623Z,5.57
2022-07-31T23:19:54.200Z,6.32
2022-07-31T23:22:34.021Z,6.00
2022-07-31T23:25:09.764Z,6.47
2022-07-31T23:27:36.201Z,5.65
2022-07-31T23:30:03.104Z,4.47
2022-07-31T23:32:29.751Z,6.57
2022-07-31T23:34:56.232Z,5.80
2022-07-31T23:37:22.659Z,5.88
2022-07-31T23:39:49.190Z,5.93
2022-07-31T23:42:34.278Z,6.28
2022-07-31T23:45:00.787Z,5.78
2022-07-31T23:47:44.682Z,5.78
2022-07-31T23:50:13.120Z,6.45
2022-07-31T23:52:39.593Z,5.90
2022-07-31T23:55:06.546Z,6.15
2022-07-31T23:57:34.773Z,6.13
